createdAt,value
2023-05-09T00:02:36.402Z,101900.16
2023-05-09T00:07:39.545Z,101908.09
2023-05-09T00:12:44.141Z,101886.34
2023-05-09T00:17:47.509Z,101900.44
2023-05-09T00:22:50.721Z,101897.09
2023-05-09T00:27:53.647Z,101898.06
2023-05-09T00:32:56.786Z,101890.22
2023-05-09T00:37:59.918Z,101919.13
2023-05-09T00:43:03.236Z,101914.88
2023-05-09T00:48:06.914Z,101908.75
2023-05-09T00:53:10.874Z,101916.66
2023-05-09T00:58:14.373Z,101921.78
2023-05-09T01:03:18.062Z,101900.22
2023-05-09T01:08:50.216Z,101918.56
2023-05-09T01:14:07.020Z,101914.22
2023-05-09T01:19:41.364Z,101922.19
2023-05-09T01:25:06.269Z,101931.91
2023-05-09T01:30:12.292Z,101938.91
2023-05-09T01:35:17.441Z,101925.84
2023-05-09T01:40:22.076Z,101932.78
2023-05-09T01:45:27.275Z,101925.84
2023-05-09T01:50:31.480Z,101915.50
2023-05-09T01:55:37.211Z,101920.78
2023-05-09T02:00:40.993Z,101914.66
2023-05-09T02:05:45.467Z,101918.28
2023-05-09T02:10:49.790Z,101934.78
2023-05-09T02:15:53.703Z,101919.97
2023-05-09T02:20:57.134Z,101919.03
2023-05-09T02:26:00.620Z,101943.59
2023-05-09T02:31:07.321Z,101943.50
2023-05-09T02:36:10.747Z,101915.53
2023-05-09T02:41:14.909Z,101918.28
2023-05-09T02:46:18.029Z,101928.72
2023-05-09T02:51:21.011Z,101919.91
2023-05-09T02:56:24.044Z,101946.16
2023-05-09T03:01:27.093Z,101933.13
2023-05-09T03:06:30.230Z,101948.00
2023-05-09T03:11:34.151Z,101925.09
2023-05-09T03:16:37.794Z,101933.00
2023-05-09T03:21:45.057Z,101941.84
2023-05-09T03:26:48.202Z,101951.38
2023-05-09T03:31:51.394Z,101964.59
2023-05-09T03:36:54.480Z,101968.00
2023-05-09T03:41:57.534Z,101965.34
2023-05-09T03:47:01.360Z,101964.50
2023-05-09T03:52:11.251Z,101974.91
2023-05-09T03:57:14.937Z,101979.13
2023-05-09T04:02:18.047Z,101965.06
2023-05-09T04:07:22.530Z,101959.63
2023-05-09T04:12:25.668Z,101954.19
2023-05-09T04:17:29.078Z,101974.75
2023-05-09T04:22:32.103Z,101972.78
2023-05-09T04:27:35.320Z,101982.38
2023-05-09T04:32:39.191Z,101946.19
2023-05-09T04:37:43.242Z,101972.19
2023-05-09T04:42:46.625Z,101977.88
2023-05-09T04:47:49.800Z,101959.09
2023-05-09T04:52:52.821Z,101951.00
2023-05-09T04:57:56.769Z,101959.66
2023-05-09T05:02:59.861Z,101985.22
2023-05-09T05:08:04.610Z,101987.81
2023-05-09T05:13:12.344Z,101988.16
2023-05-09T05:18:19.084Z,101978.06
2023-05-09T05:23:22.342Z,101989.91
2023-05-09T05:28:28.996Z,101991.91
2023-05-09T05:33:32.424Z,101990.34
2023-05-09T05:38:36.259Z,101977.69
2023-05-09T05:43:40.038Z,101991.31
2023-05-09T05:48:43.739Z,101990.44
2023-05-09T05:53:46.798Z,102013.34
2023-05-09T05:58:50.017Z,101987.94
2023-05-09T06:03:57.441Z,101992.34
2023-05-09T06:09:03.640Z,101988.41
2023-05-09T06:14:06.753Z,101976.56
2023-05-09T06:19:10.025Z,102005.00
2023-05-09T06:24:23.411Z,101999.03
2023-05-09T06:29:30.915Z,101986.03
2023-05-09T06:34:33.904Z,101967.63
2023-05-09T06:39:39.653Z,101965.28
2023-05-09T06:44:44.084Z,101976.97
2023-05-09T06:49:47.129Z,101979.22
2023-05-09T06:54:50.080Z,101970.63
2023-05-09T06:59:53.095Z,101967.13
2023-05-09T07:04:56.367Z,101949.25
2023-05-09T07:10:10.385Z,101951.72
2023-05-09T07:15:20.579Z,101936.91
2023-05-09T07:20:28.858Z,101934.13
2023-05-09T07:25:32.038Z,101924.34
2023-05-09T07:30:35.130Z,101936.81
2023-05-09T07:35:38.130Z,101923.41
2023-05-09T07:40:41.528Z,101911.88
2023-05-09T07:45:44.656Z,101920.53
2023-05-09T07:50:47.630Z,101897.75
2023-05-09T07:55:50.615Z,101918.44
2023-05-09T08:00:56.637Z,101926.03
2023-05-09T08:06:00.096Z,101907.03
2023-05-09T08:11:03.181Z,101880.81
2023-05-09T08:16:06.266Z,101898.88
2023-05-09T08:21:09.408Z,101901.13
2023-05-09T08:26:12.453Z,101892.03
2023-05-09T08:31:15.877Z,101878.28
2023-05-09T08:36:18.958Z,101881.09
2023-05-09T08:41:28.277Z,101894.63
2023-05-09T08:46:36.871Z,101890.03
2023-05-09T08:51:40.671Z,101868.72
2023-05-09T08:56:43.710Z,101890.56
2023-05-09T09:01:46.979Z,101902.66
2023-05-09T09:06:51.681Z,101890.59
2023-05-09T09:11:55.799Z,101883.25
2023-05-09T09:16:59.028Z,101856.72
2023-05-09T09:22:05.329Z,101860.72
2023-05-09T09:27:08.717Z,101882.59
2023-05-09T09:32:11.705Z,101863.19
2023-05-09T09:37:23.537Z,101867.94
2023-05-09T09:42:26.635Z,101854.06
2023-05-09T09:47:33.295Z,101870.59
2023-05-09T09:52:36.459Z,101842.41
2023-05-09T09:57:41.993Z,101857.38
2023-05-09T10:03:03.495Z,101811.38
2023-05-09T10:08:08.060Z,101818.19
2023-05-09T10:13:12.768Z,101838.53
2023-05-09T10:18:20.387Z,101847.84
2023-05-09T10:23:24.555Z,101829.13
2023-05-09T10:28:32.965Z,101840.16
2023-05-09T10:33:43.874Z,101837.28
2023-05-09T10:38:51.110Z,101867.72
2023-05-09T10:43:57.341Z,101836.41
2023-05-09T10:49:01.610Z,101828.78
2023-05-09T10:54:14.470Z,101843.50
2023-05-09T10:59:38.372Z,101813.84
2023-05-09T11:04:41.592Z,101789.03
2023-05-09T11:09:44.569Z,101815.63
2023-05-09T11:14:49.409Z,101811.28
2023-05-09T11:19:52.331Z,101821.09
2023-05-09T11:25:04.955Z,101818.16
2023-05-09T11:30:10.062Z,101834.31
2023-05-09T11:35:15.833Z,101816.47
2023-05-09T11:40:21.282Z,101832.91
2023-05-09T11:45:27.252Z,101838.78
2023-05-09T11:50:30.428Z,101830.91
2023-05-09T11:55:38.410Z,101806.53
2023-05-09T12:00:46.113Z,101795.31
2023-05-09T12:05:49.420Z,101781.34
2023-05-09T12:10:52.357Z,101804.97
2023-05-09T12:16:01.511Z,101796.50
2023-05-09T12:21:04.826Z,101781.59
2023-05-09T12:26:07.954Z,101772.09
2023-05-09T12:31:11.796Z,101799.78
2023-05-09T12:36:16.333Z,101801.81
2023-05-09T12:41:34.895Z,101772.13
2023-05-09T12:46:42.571Z,101787.09
2023-05-09T12:51:53.010Z,101791.00
2023-05-09T12:56:57.829Z,101794.41
2023-05-09T13:02:02.177Z,101767.34
2023-05-09T13:07:10.538Z,101793.25
2023-05-09T13:12:13.614Z,101765.28
2023-05-09T13:17:16.965Z,101790.00
2023-05-09T13:22:19.957Z,101788.22
2023-05-09T13:27:23.131Z,101775.69
2023-05-09T13:32:26.542Z,101776.38
2023-05-09T13:37:29.564Z,101771.44
2023-05-09T13:42:34.729Z,101769.41
2023-05-09T13:47:39.037Z,101765.56
2023-05-09T13:52:42.434Z,101777.97
2023-05-09T13:57:45.451Z,101775.13
2023-05-09T14:02:48.650Z,101764.34
2023-05-09T14:07:51.897Z,101757.88
2023-05-09T14:12:55.095Z,101752.78
2023-05-09T14:17:58.374Z,101750.47
2023-05-09T14:23:01.678Z,101749.31
2023-05-09T14:28:04.955Z,101763.53
2023-05-09T14:33:07.906Z,101756.41
2023-05-09T14:38:12.773Z,101740.81
2023-05-09T14:43:16.591Z,101742.47
2023-05-09T14:48:19.799Z,101720.81
2023-05-09T14:53:26.216Z,101741.53
2023-05-09T14:58:32.132Z,101731.78
2023-05-09T15:03:35.221Z,101723.38
2023-05-09T15:08:39.517Z,101708.84
2023-05-09T15:13:42.572Z,101719.03
2023-05-09T15:18:46.397Z,101731.25
2023-05-09T15:23:49.370Z,101716.28
2023-05-09T15:28:52.446Z,101725.06
2023-05-09T15:33:55.410Z,101728.50
2023-05-09T15:38:58.686Z,101715.75
2023-05-09T15:44:01.747Z,101716.75
2023-05-09T15:49:04.780Z,101720.16
2023-05-09T15:54:08.998Z,101714.06
2023-05-09T15:59:11.964Z,101727.34
2023-05-09T16:04:14.958Z,101732.81
2023-05-09T16:09:17.970Z,101736.34
2023-05-09T16:14:21.059Z,101728.53
2023-05-09T16:19:24.166Z,101740.03
2023-05-09T16:24:27.257Z,101722.66
2023-05-09T16:29:30.286Z,101731.53
2023-05-09T16:34:35.755Z,101724.53
2023-05-09T16:39:38.774Z,101730.00
2023-05-09T16:44:41.849Z,101757.03
2023-05-09T16:49:44.820Z,101733.72
2023-05-09T16:54:49.519Z,101737.25
2023-05-09T16:59:53.725Z,101744.25
2023-05-09T17:04:57.090Z,101746.81
2023-05-09T17:10:00.228Z,101744.31
2023-05-09T17:15:03.349Z,101733.78
2023-05-09T17:20:10.287Z,101729.75
2023-05-09T17:25:13.786Z,101746.22
2023-05-09T17:30:17.551Z,101725.44
2023-05-09T17:35:22.856Z,101723.75
2023-05-09T17:40:25.981Z,101729.63
2023-05-09T17:45:30.431Z,101743.91
2023-05-09T17:50:34.757Z,101723.91
2023-05-09T17:55:37.819Z,101725.81
2023-05-09T18:00:41.253Z,101729.06
2023-05-09T18:05:44.635Z,101712.88
2023-05-09T18:10:47.793Z,101712.72
2023-05-09T18:15:50.847Z,101688.31
2023-05-09T18:20:54.140Z,101705.97
2023-05-09T18:25:57.419Z,101719.72
2023-05-09T18:31:01.593Z,101711.69
2023-05-09T18:36:05.336Z,101707.34
2023-05-09T18:41:09.759Z,101686.63
2023-05-09T18:46:17.924Z,101678.72
2023-05-09T18:51:21.823Z,101684.78
2023-05-09T18:56:25.863Z,101686.69
2023-05-09T19:01:28.960Z,101689.41
2023-05-09T19:06:32.708Z,101685.06
2023-05-09T19:11:36.184Z,101659.63
2023-05-09T19:16:39.210Z,101682.44
2023-05-09T19:21:42.273Z,101679.16
2023-05-09T19:26:45.243Z,101693.28
2023-05-09T19:31:48.191Z,101686.34
2023-05-09T19:36:51.188Z,101683.59
2023-05-09T19:41:54.599Z,101664.59
2023-05-09T19:46:58.827Z,101687.28
2023-05-09T19:52:01.816Z,101680.38
2023-05-09T19:57:06.700Z,101661.84
2023-05-09T20:02:10.171Z,101643.19
2023-05-09T20:07:13.157Z,101676.28
2023-05-09T20:12:16.260Z,101665.69
2023-05-09T20:17:19.261Z,101669.59
2023-05-09T20:22:22.272Z,101657.50
2023-05-09T20:27:25.319Z,101669.03
2023-05-09T20:32:28.533Z,101668.16
2023-05-09T20:37:31.575Z,101671.56
2023-05-09T20:42:34.617Z,101675.19
2023-05-09T20:47:37.721Z,101676.03
2023-05-09T20:52:40.800Z,101677.06
2023-05-09T20:57:43.787Z,101670.72
2023-05-09T21:02:46.961Z,101668.13
2023-05-09T21:07:50.112Z,101648.31
2023-05-09T21:12:53.166Z,101662.25
2023-05-09T21:17:56.286Z,101663.13
2023-05-09T21:22:59.337Z,101664.03
2023-05-09T21:28:02.316Z,101639.69
2023-05-09T21:33:05.320Z,101626.44
2023-05-09T21:38:08.376Z,101649.44
2023-05-09T21:43:11.316Z,101632.84
2023-05-09T21:48:14.320Z,101633.84
2023-05-09T21:53:17.254Z,101628.47
2023-05-09T21:58:20.351Z,101614.78
2023-05-09T22:03:23.804Z,101587.88
2023-05-09T22:08:26.869Z,101627.91
2023-05-09T22:13:29.931Z,101614.22
2023-05-09T22:18:32.956Z,101603.19
2023-05-09T22:23:36.042Z,101591.19
2023-05-09T22:28:42.047Z,101607.81
2023-05-09T22:33:45.066Z,101622.16
2023-05-09T22:38:47.989Z,101608.31
2023-05-09T22:43:51.305Z,101629.50
2023-05-09T22:48:54.264Z,101624.28
2023-05-09T22:53:57.189Z,101602.69
2023-05-09T22:59:00.266Z,101592.19
2023-05-09T23:04:03.276Z,101613.22
2023-05-09T23:09:06.241Z,101626.41
2023-05-09T23:14:09.267Z,101604.50
2023-05-09T23:19:12.317Z,101626.16
2023-05-09T23:24:15.347Z,101605.16
2023-05-09T23:29:18.373Z,101615.44
2023-05-09T23:34:21.416Z,101618.41
2023-05-09T23:39:24.500Z,101599.28
2023-05-09T23:44:27.655Z,101587.91
2023-05-09T23:49:30.700Z,101590.69
2023-05-09T23:54:33.637Z,101584.84
2023-05-09T23:59:36.578Z,101610.16
